Time;durP1;ratioP1;P1;durP2;ratioP2;P2;SDS_P1;SDS_P2;PMS_P1;PMS_P2;Temp;Humidity;BMP_temperature;BMP_pressure;BME280_temperature;BME280_humidity;BME280_pressure;Samples;Min_cycle;Max_cycle;Signal;HPM_P1;HPM_P2
2022/11/23 00:01:22;;;;;;;4.20;2.63;;;;;;;15.79;60.88;99464.25;4794585;29;20035;-80
2022/11/23 00:03:49;;;;;;;4.45;2.92;;;;;;;15.79;60.74;99472.88;4793615;29;20042;-80
2022/11/23 00:06:18;;;;;;;5.45;2.80;;;;;;;15.78;60.89;99468.56;4778916;30;20039;-80
2022/11/23 00:08:44;;;;;;;4.55;2.80;;;;;;;15.79;60.78;99466.84;4795471;29;20039;-80
2022/11/23 00:11:11;;;;;;;8.70;2.63;;;;;;;15.78;60.82;99472.91;4780866;29;20066;-81
2022/11/23 00:13:39;;;;;;;4.70;2.75;;;;;;;15.78;60.98;99484.13;4796190;29;20122;-80
2022/11/23 00:16:11;;;;;;;6.50;2.65;;;;;;;15.79;60.68;99487.59;4781462;30;20058;-81
2022/11/23 00:18:38;;;;;;;5.63;2.30;;;;;;;15.78;60.86;99486.72;4804382;29;20036;-81
2022/11/23 00:21:09;;;;;;;4.97;2.75;;;;;;;15.78;60.76;99485.88;4786996;29;20057;-80
2022/11/23 00:23:36;;;;;;;6.43;2.75;;;;;;;15.78;60.75;99486.72;4788306;29;20039;-81
2022/11/23 00:26:03;;;;;;;5.15;2.90;;;;;;;15.78;60.88;99491.91;4787750;29;20043;-81
2022/11/23 00:28:30;;;;;;;5.53;2.83;;;;;;;15.79;60.64;99493.63;4805913;30;20035;-80
2022/11/23 00:30:55;;;;;;;5.43;2.72;;;;;;;15.78;60.70;99494.50;4803842;29;20118;-81
2022/11/23 00:33:21;;;;;;;3.58;2.35;;;;;;;15.79;60.88;99500.56;4788846;30;20075;-81
2022/11/23 00:35:58;;;;;;;5.45;2.60;;;;;;;15.78;60.69;99499.69;4787338;30;20521;-80
2022/11/23 00:38:24;;;;;;;3.63;2.35;;;;;;;15.77;60.78;99492.81;4788075;30;20138;-80
2022/11/23 00:40:56;;;;;;;4.47;2.60;;;;;;;15.79;60.84;99501.41;4787660;29;20499;-80
2022/11/23 00:43:22;;;;;;;4.55;2.72;;;;;;;15.78;60.89;99497.09;4773129;29;20066;-81
2022/11/23 00:45:49;;;;;;;4.40;2.58;;;;;;;15.78;60.74;99491.06;4788175;30;20043;-80
2022/11/23 00:48:15;;;;;;;5.95;2.45;;;;;;;15.79;60.55;99495.38;4788647;29;20044;-80
2022/11/23 00:50:40;;;;;;;4.85;2.30;;;;;;;15.78;60.72;99497.09;4788555;29;20042;-80
2022/11/23 00:53:07;;;;;;;4.25;2.20;;;;;;;15.77;60.85;99500.59;4788268;29;20058;-80
2022/11/23 00:55:32;;;;;;;3.67;2.50;;;;;;;15.78;60.80;99499.69;4783216;29;20063;-80
2022/11/23 00:58:01;;;;;;;4.60;2.40;;;;;;;15.78;60.76;99504.88;4797889;29;20031;-80
2022/11/23 01:00:26;;;;;;;4.03;2.40;;;;;;;15.77;60.81;99503.19;4789843;30;20125;-81
2022/11/23 01:02:52;;;;;;;5.20;2.33;;;;;;;15.78;60.87;99504.88;4777027;29;20039;-81
2022/11/23 01:05:18;;;;;;;3.95;2.17;;;;;;;15.78;60.56;99510.06;4776653;30;20047;-80
2022/11/23 01:07:43;;;;;;;3.15;2.10;;;;;;;15.79;60.80;99509.19;4774289;29;20047;-80
2022/11/23 01:10:08;;;;;;;3.92;2.55;;;;;;;15.79;60.69;99508.34;4788877;30;20054;-80
2022/11/23 01:12:34;;;;;;;5.72;2.45;;;;;;;15.78;60.65;99509.22;4774762;29;20055;-80
2022/11/23 01:14:59;;;;;;;3.38;2.20;;;;;;;15.79;60.62;99506.59;4770505;30;20142;-80
2022/11/23 01:17:25;;;;;;;4.68;2.53;;;;;;;15.78;60.93;99506.63;4800974;29;20074;-79
2022/11/23 01:19:51;;;;;;;3.60;2.10;;;;;;;15.78;60.63;99506.63;4800360;29;20043;-79
2022/11/23 01:22:16;;;;;;;3.72;2.20;;;;;;;15.78;60.40;99504.88;4800229;29;20044;-79
2022/11/23 01:24:42;;;;;;;4.20;2.30;;;;;;;15.78;60.72;99510.06;4800193;29;20042;-80
2022/11/23 01:27:14;;;;;;;3.78;2.17;;;;;;;15.79;60.55;99513.53;4784348;30;20054;-80
2022/11/23 01:29:39;;;;;;;4.18;2.13;;;;;;;15.79;60.69;99513.53;4769760;29;20043;-80
2022/11/23 01:32:12;;;;;;;3.72;2.15;;;;;;;15.78;60.58;99515.25;4799699;29;20039;-79
2022/11/23 01:34:37;;;;;;;4.47;2.08;;;;;;;15.77;60.56;99516.16;4799507;29;20036;-80
2022/11/23 01:37:03;;;;;;;3.60;2.00;;;;;;;15.77;60.70;99518.75;4775861;30;20073;-80
2022/11/23 01:39:29;;;;;;;3.40;1.98;;;;;;;15.78;60.54;99517.00;4809507;29;20100;-80
2022/11/23 01:41:55;;;;;;;2.80;2.00;;;;;;;15.77;60.59;99513.56;4808575;29;20043;-80
2022/11/23 01:44:42;;;;;;;3.90;2.20;;;;;;;15.78;60.62;99517.84;4777492;29;20050;-80
2022/11/23 01:47:10;;;;;;;3.13;1.90;;;;;;;15.77;60.48;99510.97;4788840;30;20050;-79
2022/11/23 01:49:39;;;;;;;3.70;2.00;;;;;;;15.78;60.65;99515.25;4787206;30;20036;-80
2022/11/23 01:52:16;;;;;;;3.85;2.05;;;;;;;15.78;60.41;99514.41;4803018;29;20047;-80
2022/11/23 01:54:53;;;;;;;3.75;1.90;;;;;;;15.77;60.28;99510.97;4801565;29;20055;-80
2022/11/23 01:57:29;;;;;;;3.78;2.00;;;;;;;15.77;60.58;99513.56;4801265;29;20099;-80
2022/11/23 01:59:56;;;;;;;3.78;1.90;;;;;;;15.77;60.45;99517.91;4800222;29;20047;-80
2022/11/23 02:02:21;;;;;;;3.40;1.98;;;;;;;15.77;60.61;99513.56;4769540;29;20043;-80
2022/11/23 02:04:50;;;;;;;3.33;1.98;;;;;;;15.77;60.54;99518.75;4799696;29;20074;-80
2022/11/23 02:07:17;;;;;;;3.60;2.13;;;;;;;15.77;60.59;99515.31;4800601;29;20058;-79
2022/11/23 02:09:45;;;;;;;4.45;2.38;;;;;;;15.78;60.62;99528.22;4800116;29;20126;-80
2022/11/23 02:12:12;;;;;;;3.67;1.92;;;;;;;15.77;60.85;99528.28;4784823;30;20486;-79
2022/11/23 02:14:41;;;;;;;2.60;1.55;;;;;;;15.77;60.65;99526.53;4800247;29;20059;-80
2022/11/23 02:17:08;;;;;;;2.97;1.77;;;;;;;15.78;60.77;99536.00;4769043;29;20134;-80
2022/11/23 02:19:50;;;;;;;3.53;1.95;;;;;;;15.78;60.64;99541.19;4784352;29;20043;-80
2022/11/23 02:22:37;;;;;;;2.92;1.88;;;;;;;15.78;60.45;99536.00;4799536;29;20423;-80
2022/11/23 02:25:12;;;;;;;3.33;2.00;;;;;;;15.76;60.47;99535.19;4799788;29;20087;-80
2022/11/23 02:27:39;;;;;;;4.15;1.83;;;;;;;15.77;60.36;99539.50;4783648;29;20360;-80
2022/11/23 02:30:07;;;;;;;4.20;1.77;;;;;;;15.78;60.69;99545.53;4782649;29;20042;-80
2022/11/23 02:32:35;;;;;;;3.70;1.70;;;;;;;15.77;60.48;99534.31;4783861;30;20035;-80
2022/11/23 02:35:01;;;;;;;2.90;1.95;;;;;;;15.77;60.74;99531.72;4783304;29;20069;-79
2022/11/23 02:37:29;;;;;;;2.80;1.80;;;;;;;15.76;60.68;99532.59;4783258;30;20047;-80
2022/11/23 02:40:07;;;;;;;3.45;1.80;;;;;;;15.76;60.58;99530.00;4798821;29;20126;-80
2022/11/23 02:42:33;;;;;;;4.10;1.85;;;;;;;15.77;60.50;99530.88;4799020;29;20043;-80
2022/11/23 02:45:20;;;;;;;3.83;1.90;;;;;;;15.77;60.58;99530.88;4782119;29;20046;-79
2022/11/23 02:47:47;;;;;;;3.13;1.63;;;;;;;15.77;60.44;99536.91;4798911;29;20035;-80
2022/11/23 02:50:14;;;;;;;3.38;1.77;;;;;;;15.78;60.64;99532.56;4783489;30;20116;-80
2022/11/23 02:52:41;;;;;;;2.55;1.63;;;;;;;15.78;60.58;99535.16;4798991;29;20043;-80
2022/11/23 02:55:08;;;;;;;3.20;1.60;;;;;;;15.76;60.53;99537.78;4782403;30;20059;-80
2022/11/23 02:57:34;;;;;;;5.47;1.80;;;;;;;15.76;60.59;99540.38;4798064;29;20047;-80
2022/11/23 02:59:59;;;;;;;3.53;1.90;;;;;;;15.77;60.79;99543.84;4781598;29;20491;-80
2022/11/23 03:02:25;;;;;;;2.95;1.70;;;;;;;15.76;60.79;99542.97;4798008;29;20452;-80
2022/11/23 03:04:51;;;;;;;2.88;1.60;;;;;;;15.78;60.38;99546.38;4781737;29;20044;-80
2022/11/23 03:07:17;;;;;;;2.90;1.60;;;;;;;15.78;60.44;99553.31;4797662;29;20073;-80
2022/11/23 03:09:43;;;;;;;3.70;2.03;;;;;;;15.77;60.41;99543.84;4781535;29;20111;-79
2022/11/23 03:12:09;;;;;;;3.00;1.67;;;;;;;15.77;60.33;99547.28;4797964;29;20054;-80
2022/11/23 03:14:37;;;;;;;3.05;1.77;;;;;;;15.77;60.54;99551.63;4799181;29;20047;-80
2022/11/23 03:17:05;;;;;;;3.28;1.65;;;;;;;15.77;60.53;99543.84;4793223;30;20047;-80
2022/11/23 03:19:30;;;;;;;3.28;1.55;;;;;;;15.77;60.42;99556.81;4792029;29;20047;-81
2022/11/23 03:21:56;;;;;;;2.80;1.63;;;;;;;15.76;60.45;99553.34;4790307;30;20057;-80
2022/11/23 03:24:28;;;;;;;2.75;1.63;;;;;;;15.77;60.48;99551.63;4793818;29;20093;-80
2022/11/23 03:26:55;;;;;;;3.53;1.97;;;;;;;15.75;60.42;99551.66;4803180;29;20068;-80
2022/11/23 03:29:25;;;;;;;2.33;1.50;;;;;;;15.76;60.31;99542.13;4790769;30;20072;-80
2022/11/23 03:31:53;;;;;;;2.65;1.80;;;;;;;15.76;60.66;99545.56;4775746;30;20069;-80
2022/11/23 03:34:19;;;;;;;3.50;1.80;;;;;;;15.77;60.56;99557.66;4789406;30;20077;-80
2022/11/23 03:36:44;;;;;;;2.85;1.60;;;;;;;15.76;60.59;99548.16;4788997;29;20039;-80
2022/11/23 03:39:11;;;;;;;3.03;1.50;;;;;;;15.77;60.40;99549.03;4788817;30;20039;-79
2022/11/23 03:41:38;;;;;;;2.83;1.58;;;;;;;15.77;60.30;99542.09;4788540;29;20043;-79
2022/11/23 03:44:03;;;;;;;2.47;1.60;;;;;;;15.75;60.32;99550.81;4788535;30;20062;-80
2022/11/23 03:46:29;;;;;;;2.85;1.50;;;;;;;15.77;60.20;99556.81;4773796;29;20044;-80
2022/11/23 03:48:55;;;;;;;2.70;1.50;;;;;;;15.76;60.58;99553.34;4789050;29;20043;-80
2022/11/23 03:51:21;;;;;;;2.72;1.52;;;;;;;15.76;60.41;99555.09;4801477;29;20068;-79
2022/11/23 03:53:46;;;;;;;2.17;1.42;;;;;;;15.77;60.54;99549.88;4803707;29;20108;-79
2022/11/23 03:56:13;;;;;;;2.25;1.50;;;;;;;15.75;60.37;99549.06;4786087;29;20090;-79
2022/11/23 03:58:39;;;;;;;2.83;1.50;;;;;;;15.77;60.55;99551.63;4785833;29;20062;-79
2022/11/23 04:01:05;;;;;;;2.70;1.50;;;;;;;15.76;60.48;99549.91;4783877;30;20039;-80
2022/11/23 04:03:30;;;;;;;4.07;1.70;;;;;;;15.75;60.48;99556.00;4800447;29;20047;-80
2022/11/23 04:05:56;;;;;;;3.33;1.70;;;;;;;15.76;60.35;99553.34;4783519;30;20039;-79
2022/11/23 04:08:23;;;;;;;2.55;1.60;;;;;;;15.76;60.48;99555.09;4803107;29;20050;-79
2022/11/23 04:10:49;;;;;;;2.42;1.70;;;;;;;15.75;60.34;99550.81;4798485;29;20046;-79
2022/11/23 04:13:14;;;;;;;2.70;1.73;;;;;;;15.76;60.51;99553.34;4786452;29;20067;-80
2022/11/23 04:15:40;;;;;;;2.83;1.60;;;;;;;15.76;60.48;99552.50;4786709;29;20043;-80
2022/11/23 04:18:06;;;;;;;2.75;1.63;;;;;;;15.75;60.13;99551.66;4789925;30;20060;-80
2022/11/23 04:20:33;;;;;;;4.30;1.73;;;;;;;15.75;60.47;99554.25;4789896;29;20039;-80
2022/11/23 04:22:59;;;;;;;2.45;1.42;;;;;;;15.75;60.37;99556.00;4786966;29;20051;-80
2022/11/23 04:25:24;;;;;;;3.00;1.50;;;;;;;15.75;60.44;99564.63;4768669;29;20537;-80
2022/11/23 04:27:49;;;;;;;2.40;1.60;;;;;;;15.74;60.53;99560.34;4769172;30;20104;-79
2022/11/23 04:30:15;;;;;;;3.22;1.63;;;;;;;15.75;60.42;99567.22;4768150;29;20054;-80
2022/11/23 04:32:44;;;;;;;3.83;1.60;;;;;;;15.76;60.20;99568.91;4801073;29;20039;-80
2022/11/23 04:35:11;;;;;;;2.33;1.60;;;;;;;15.75;60.55;99569.81;4805807;29;20039;-80
2022/11/23 04:37:36;;;;;;;2.63;1.40;;;;;;;15.75;60.42;99569.81;4804832;29;20051;-80
2022/11/23 04:40:04;;;;;;;2.95;1.60;;;;;;;15.75;60.57;99572.41;4805639;29;20066;-80
2022/11/23 04:42:30;;;;;;;2.60;1.50;;;;;;;15.76;60.57;99573.25;4805939;29;20051;-80
2022/11/23 04:44:56;;;;;;;2.33;1.30;;;;;;;15.75;60.54;99568.97;4789424;29;20076;-79
2022/11/23 04:47:23;;;;;;;2.53;1.40;;;;;;;15.75;60.37;99574.16;4784791;29;20114;-80
2022/11/23 04:49:49;;;;;;;3.22;1.45;;;;;;;15.75;60.29;99567.22;4798903;29;20043;-79
2022/11/23 04:52:15;;;;;;;2.33;1.50;;;;;;;15.74;60.39;99568.13;4783044;30;20083;-79
2022/11/23 04:54:40;;;;;;;2.40;1.48;;;;;;;15.74;60.52;99568.13;4808828;29;20058;-80
2022/11/23 04:57:05;;;;;;;2.08;1.33;;;;;;;15.75;60.33;99568.97;4801780;29;20047;-80
2022/11/23 04:59:31;;;;;;;2.05;1.30;;;;;;;15.75;60.47;99574.16;4815868;29;20039;-80
2022/11/23 05:01:57;;;;;;;2.72;1.40;;;;;;;15.74;60.39;99568.13;4801075;29;20039;-80
2022/11/23 05:04:22;;;;;;;2.40;1.35;;;;;;;15.75;60.27;99568.97;4817070;29;20070;-80
2022/11/23 05:06:48;;;;;;;2.08;1.30;;;;;;;15.74;60.15;99567.25;4817004;29;20398;-80
2022/11/23 05:09:14;;;;;;;2.25;1.17;;;;;;;15.73;60.42;99563.81;4815167;29;20486;-79
2022/11/23 05:11:39;;;;;;;2.63;1.40;;;;;;;15.73;60.31;99571.59;4816444;29;20495;-80
2022/11/23 05:14:06;;;;;;;2.60;1.40;;;;;;;15.74;60.21;99569.84;4816544;29;20180;-80
2022/11/23 05:16:32;;;;;;;2.35;1.40;;;;;;;15.73;60.58;99570.72;4816207;29;20046;-80
2022/11/23 05:18:59;;;;;;;2.28;1.30;;;;;;;15.74;60.35;99570.72;4813726;29;20038;-79
2022/11/23 05:21:24;;;;;;;2.40;1.30;;;;;;;15.73;60.29;99573.31;4799134;29;20039;-80
2022/11/23 05:23:50;;;;;;;2.05;1.20;;;;;;;15.74;60.26;99572.44;4814507;29;20108;-80
2022/11/23 05:26:15;;;;;;;1.80;1.13;;;;;;;15.73;60.33;99571.59;4815475;29;20581;-79
2022/11/23 05:28:41;;;;;;;2.70;1.45;;;;;;;15.74;60.35;99581.09;4813967;29;20054;-79
2022/11/23 05:31:07;;;;;;;2.38;1.20;;;;;;;15.74;60.52;99578.50;4798830;29;20034;-80
2022/11/23 05:33:33;;;;;;;2.33;1.52;;;;;;;15.75;60.39;99581.94;4815671;29;20067;-80
2022/11/23 05:35:59;;;;;;;2.20;1.27;;;;;;;15.74;60.40;99586.28;4815582;29;20039;-79
2022/11/23 05:38:26;;;;;;;1.65;1.17;;;;;;;15.75;60.29;99587.13;4815876;29;20056;-80
2022/11/23 05:40:51;;;;;;;1.45;1.10;;;;;;;15.74;60.28;99590.59;4815632;29;20368;-80
2022/11/23 05:43:17;;;;;;;2.05;1.30;;;;;;;15.73;60.31;99578.50;4814376;29;20054;-80
2022/11/23 05:45:42;;;;;;;1.80;1.25;;;;;;;15.73;60.36;99575.91;4799020;29;20070;-80
2022/11/23 05:48:08;;;;;;;2.03;1.15;;;;;;;15.73;60.15;99581.94;4815825;29;20034;-80
2022/11/23 05:50:40;;;;;;;2.10;1.40;;;;;;;15.74;60.19;99586.28;4815635;29;20039;-80
2022/11/23 05:53:45;;;;;;;2.40;1.20;;;;;;;15.74;60.35;99583.69;4816525;29;20521;-81
2022/11/23 05:56:10;;;;;;;2.38;1.40;;;;;;;15.74;60.31;99585.41;4820841;29;20059;-81
2022/11/23 05:58:58;;;;;;;1.30;1.00;;;;;;;15.74;60.25;99580.22;4821497;29;20058;-81
2022/11/23 06:01:24;;;;;;;2.20;1.10;;;;;;;15.73;60.26;99587.16;4819062;29;20039;-79
2022/11/23 06:04:09;;;;;;;1.98;1.10;;;;;;;15.73;60.45;99591.47;4818767;29;20076;-81
2022/11/23 06:06:41;;;;;;;1.73;1.13;;;;;;;15.72;60.40;99588.03;4821901;29;20428;-80
2022/11/23 06:09:08;;;;;;;3.28;1.35;;;;;;;15.73;60.43;99588.88;4816488;29;20049;-77
2022/11/23 06:12:11;;;;;;;4.25;1.67;;;;;;;15.73;60.44;99592.31;4824097;29;20054;-80
2022/11/23 06:14:37;;;;;;;4.03;1.80;;;;;;;15.73;60.44;99583.69;4824413;29;20039;-80
2022/11/23 06:17:11;;;;;;;7.65;2.47;;;;;;;15.75;60.48;99585.38;4822713;29;20046;-79
2022/11/23 06:19:55;;;;;;;14.60;4.43;;;;;;;15.78;60.64;99585.28;4830170;29;20042;-83
2022/11/23 06:56:37;;;;;;;8.98;2.88;;;;;;;16.11;61.20;99587.16;5616970;24;20078;-81
2022/11/23 06:59:03;;;;;;;8.80;3.30;;;;;;;16.10;60.98;99601.88;4808303;29;20042;-81
2022/11/23 07:01:39;;;;;;;7.32;3.17;;;;;;;16.09;60.89;99602.78;4815139;29;20027;-81
2022/11/23 07:06:40;;;;;;;5.10;2.60;;;;;;;16.08;61.13;99606.25;5645556;24;20039;-79
2022/11/23 07:09:06;;;;;;;8.50;2.92;;;;;;;16.05;61.07;99606.34;4820692;29;20121;-81
2022/11/23 07:11:31;;;;;;;10.82;2.97;;;;;;;16.06;61.23;99618.41;4838356;29;20105;-82
2022/11/23 07:13:59;;;;;;;9.55;3.22;;;;;;;16.04;61.27;99615.00;4839527;29;20039;-82
2022/11/23 07:16:25;;;;;;;6.78;2.80;;;;;;;16.06;61.18;99620.16;4838193;29;20043;-82
2022/11/23 07:18:52;;;;;;;7.38;2.95;;;;;;;16.03;61.13;99627.13;5151836;24;20214;-81
2022/11/23 07:21:37;;;;;;;7.60;3.17;;;;;;;16.01;60.60;99631.50;4823290;29;20051;-82
2022/11/23 07:24:02;;;;;;;9.23;3.55;;;;;;;15.94;60.41;99629.94;4845063;29;20048;-82
2022/11/23 07:26:29;;;;;;;12.82;3.42;;;;;;;15.94;60.62;99632.53;4838508;29;20513;-82
2022/11/23 07:28:56;;;;;;;10.20;3.20;;;;;;;15.94;60.80;99629.06;4822835;29;20072;-80
2022/11/23 07:31:21;;;;;;;7.18;3.50;;;;;;;15.97;60.63;99631.59;4823884;29;20061;-77
2022/11/23 07:33:53;;;;;;;7.75;2.95;;;;;;;15.96;60.44;99633.34;4824415;29;20042;-80
2022/11/23 07:39:52;;;;;;;6.18;3.00;;;;;;;15.99;60.69;99648.00;4844938;29;20042;-81
2022/11/23 07:42:19;;;;;;;6.65;2.92;;;;;;;16.00;60.64;99647.97;4808657;29;20042;-81
2022/11/23 07:44:47;;;;;;;7.38;2.88;;;;;;;16.01;60.58;99649.66;4839258;29;20035;-81
2022/11/23 07:47:13;;;;;;;7.00;2.80;;;;;;;16.04;60.45;99648.72;4837827;29;20051;-81
2022/11/23 07:49:38;;;;;;;7.90;2.67;;;;;;;16.04;60.62;99653.91;4836528;29;20042;-81
2022/11/23 07:52:06;;;;;;;7.85;2.72;;;;;;;16.06;60.67;99648.72;4835147;29;20405;-81
2022/11/23 07:54:35;;;;;;;6.63;3.05;;;;;;;16.07;60.31;99650.41;4839420;29;20042;-81
2022/11/23 07:57:02;;;;;;;7.25;2.70;;;;;;;16.09;60.47;99657.28;4823207;29;20046;-81
2022/11/23 07:59:29;;;;;;;4.55;2.10;;;;;;;16.09;60.39;99656.41;4836838;29;20098;-81
2022/11/23 08:01:55;;;;;;;6.45;2.70;;;;;;;16.08;60.43;99652.97;4833925;29;20038;-81
2022/11/23 08:04:21;;;;;;;5.13;2.35;;;;;;;16.09;60.47;99661.59;4821899;29;20050;-82
2022/11/23 08:06:47;;;;;;;5.20;2.50;;;;;;;16.10;60.72;99668.53;4843845;29;20132;-81
2022/11/23 08:09:13;;;;;;;6.28;2.70;;;;;;;16.07;60.42;99661.66;4838684;29;20056;-81
2022/11/23 08:11:38;;;;;;;7.43;2.33;;;;;;;16.06;60.57;99653.91;4828932;29;20049;-81
2022/11/23 08:14:05;;;;;;;6.55;2.50;;;;;;;16.07;60.48;99658.19;4843062;29;20050;-81
2022/11/23 08:16:31;;;;;;;4.35;2.10;;;;;;;16.07;60.86;99659.06;4821160;29;20080;-80
2022/11/23 08:18:57;;;;;;;6.85;2.30;;;;;;;16.07;60.53;99664.25;4835920;29;20046;-81
2022/11/23 08:21:24;;;;;;;4.65;2.38;;;;;;;16.07;60.51;99661.66;4834639;29;20102;-81
2022/11/23 08:23:49;;;;;;;5.97;2.35;;;;;;;16.07;60.56;99663.38;4802787;29;20065;-81
2022/11/23 08:26:21;;;;;;;6.28;2.50;;;;;;;16.06;60.60;99657.34;4819054;29;20030;-81
2022/11/23 08:28:46;;;;;;;6.78;2.40;;;;;;;16.06;60.40;99667.72;4834704;29;20050;-81
2022/11/23 08:31:13;;;;;;;7.75;2.28;;;;;;;16.05;60.61;99660.84;4819114;29;20042;-81
2022/11/23 08:33:40;;;;;;;5.75;2.85;;;;;;;16.06;60.46;99659.94;4835394;29;20042;-80
2022/11/23 08:36:08;;;;;;;4.68;2.30;;;;;;;16.06;60.51;99657.34;4836865;29;20027;-81
2022/11/23 08:38:53;;;;;;;6.15;2.38;;;;;;;16.07;60.43;99668.56;4844162;29;20041;-85
2022/11/23 08:41:22;;;;;;;3.80;2.10;;;;;;;16.06;60.74;99664.28;4843729;29;20038;-82
2022/11/23 08:43:49;;;;;;;5.25;2.60;;;;;;;16.07;60.44;99671.16;4821748;29;20042;-81
2022/11/23 08:46:18;;;;;;;5.97;2.50;;;;;;;16.07;60.37;99673.75;4806914;29;20549;-81
2022/11/23 08:49:11;;;;;;;4.63;2.40;;;;;;;16.07;60.62;99677.22;4827894;29;20044;-82
2022/11/23 08:55:48;;;;;;;4.47;1.90;;;;;;;16.07;60.64;99671.16;4807014;30;20109;-83
2022/11/23 08:58:24;;;;;;;4.53;2.38;;;;;;;16.07;60.69;99659.06;4806851;30;20041;-81
2022/11/23 09:00:50;;;;;;;8.05;2.33;;;;;;;16.07;60.52;99659.06;4801593;30;20051;-81
2022/11/23 09:07:21;;;;;;;4.63;1.77;;;;;;;16.10;60.73;99648.59;4769915;30;20120;-83
2022/11/23 09:20:21;;;;;;;4.05;1.90;;;;;;;16.20;60.56;99621.56;4771212;30;20195;-82
2022/11/23 09:29:50;;;;;;;3.63;1.70;;;;;;;16.20;60.37;99608.59;4771750;30;20086;-82
2022/11/23 09:36:13;;;;;;;4.60;1.75;;;;;;;16.20;60.52;99590.41;4777202;29;20050;-83
2022/11/23 09:39:22;;;;;;;5.15;1.75;;;;;;;16.19;60.45;99591.28;4776753;29;20094;-83
2022/11/23 09:42:51;;;;;;;5.30;1.90;;;;;;;16.18;60.46;99587.00;4786264;29;20023;-83
2022/11/23 09:45:53;;;;;;;5.95;1.98;;;;;;;16.18;60.34;99592.19;4776170;30;20047;-82
2022/11/23 09:51:34;;;;;;;4.93;2.10;;;;;;;16.18;60.37;99579.22;4030703;27;20050;-81
2022/11/23 09:54:29;;;;;;;3.60;1.80;;;;;;;16.16;60.41;99570.59;4852145;29;20030;-82
2022/11/23 10:00:24;;;;;;;5.03;2.13;;;;;;;16.18;60.33;99578.38;4866570;29;20017;-81
2022/11/23 10:02:52;;;;;;;2.57;1.43;;;;;;;16.17;60.49;99576.66;4866188;29;20033;-82
2022/11/23 10:09:11;;;;;;;4.85;1.73;;;;;;;16.18;60.58;99579.22;4866483;29;20021;-82
2022/11/23 10:12:14;;;;;;;5.43;1.92;;;;;;;16.17;60.74;99566.25;4867242;29;20038;-83
2022/11/23 10:15:18;;;;;;;4.35;1.80;;;;;;;16.19;60.50;99588.69;4812553;29;20106;-82
2022/11/23 10:18:34;;;;;;;3.83;1.65;;;;;;;16.19;60.14;99578.31;4794699;30;20042;-82
2022/11/23 10:24:58;;;;;;;4.43;1.95;;;;;;;16.18;60.37;99579.22;4809934;30;20056;-82
2022/11/23 10:28:12;;;;;;;3.97;1.67;;;;;;;16.18;60.36;99579.22;4772486;30;20059;-82
2022/11/23 10:31:19;;;;;;;4.30;1.90;;;;;;;16.18;60.26;99580.97;4732549;30;20072;-82
2022/11/23 10:34:22;;;;;;;4.30;1.67;;;;;;;16.19;60.23;99574.88;4785544;30;20055;-83
2022/11/23 10:40:22;;;;;;;4.05;1.55;;;;;;;16.19;60.46;99578.31;4790070;30;20066;-83
2022/11/23 10:53:21;;;;;;;4.20;1.92;;;;;;;16.22;60.19;99572.19;4790031;30;20051;-83
2022/11/23 10:59:35;;;;;;;4.18;1.50;;;;;;;16.22;60.18;99579.97;4805255;30;20129;-83
2022/11/23 11:17:56;;;;;;;3.35;1.80;;;;;;;16.25;60.21;99577.31;4829961;29;20095;-84
2022/11/23 11:27:12;;;;;;;4.25;1.60;;;;;;;16.25;60.14;99572.13;4809336;30;21113;-84
2022/11/23 11:39:07;;;;;;;4.82;1.73;;;;;;;16.27;60.17;99527.97;4790955;30;20091;-83
2022/11/23 11:42:26;;;;;;;2.88;1.50;;;;;;;16.27;60.14;99534.00;4755151;30;20040;-84
2022/11/23 12:19:50;;;;;;;3.03;1.08;;;;;;;16.40;60.19;99503.41;3035661;27;20058;-84
2022/11/23 12:22:38;;;;;;;4.25;1.75;;;;;;;16.42;60.11;99499.03;4847375;29;20126;-81
2022/11/23 12:29:09;;;;;;;4.65;1.40;;;;;;;16.45;60.07;99485.94;4844072;29;20037;-81
2022/11/23 12:31:58;;;;;;;2.92;1.30;;;;;;;16.44;60.17;99492.06;4891949;24;20068;-81
2022/11/23 12:35:03;;;;;;;2.60;1.20;;;;;;;16.42;60.21;99486.88;4863377;29;20018;-84
2022/11/23 12:41:30;;;;;;;3.22;1.10;;;;;;;16.40;60.21;99475.69;4854511;29;20324;-84
2022/11/23 12:50:39;;;;;;;3.33;1.50;;;;;;;16.39;60.24;99463.59;3002946;27;20037;-83
2022/11/23 13:44:18;;;;;;;2.50;1.10;;;;;;;16.33;60.41;99486.25;5883581;24;20036;31
2022/11/23 13:50:55;;;;;;;2.78;1.20;;;;;;;16.36;60.51;99502.63;4832358;29;20051;-83
2022/11/23 13:56:44;;;;;;;3.08;1.13;;;;;;;16.39;60.50;99518.09;4830489;29;20046;-83
2022/11/23 13:59:49;;;;;;;2.35;0.93;;;;;;;16.39;60.42;99512.91;4814239;29;20049;-83
2022/11/23 14:02:52;;;;;;;1.98;0.90;;;;;;;16.38;60.39;99516.41;4823829;29;20039;-83
2022/11/23 14:08:42;;;;;;;4.38;1.17;;;;;;;16.38;60.55;99512.97;4803330;30;20046;-80
2022/11/23 14:11:19;;;;;;;1.95;1.00;;;;;;;16.37;60.58;99506.91;4800209;30;20047;-81
2022/11/23 14:13:54;;;;;;;6.70;1.30;;;;;;;16.37;60.67;99504.31;4802800;30;20512;-81
2022/11/23 14:16:57;;;;;;;3.70;1.30;;;;;;;16.36;60.70;99494.81;4780976;30;20066;-81
2022/11/23 14:19:41;;;;;;;4.37;1.23;;;;;;;16.35;60.69;99485.34;4781069;30;20071;-80
2022/11/23 14:22:19;;;;;;;2.65;1.10;;;;;;;16.36;60.73;99492.22;4781966;30;20040;-80
2022/11/23 14:25:15;;;;;;;4.03;1.25;;;;;;;16.35;60.69;99482.75;4780561;30;20039;-81
2022/11/23 14:28:18;;;;;;;3.25;1.10;;;;;;;16.36;60.63;99475.81;4800034;30;20127;-81
2022/11/23 14:31:23;;;;;;;3.40;1.20;;;;;;;16.36;60.65;99486.19;4804606;30;20044;-81
2022/11/23 14:34:13;;;;;;;1.95;0.95;;;;;;;16.35;60.62;99480.16;4802641;30;20093;-81
2022/11/23 14:37:18;;;;;;;2.05;0.93;;;;;;;16.34;60.67;99488.81;4808445;30;20035;-82
2022/11/23 14:40:46;;;;;;;1.90;0.82;;;;;;;16.35;60.77;99498.34;4810463;30;20058;-82
2022/11/23 14:43:22;;;;;;;3.67;1.05;;;;;;;16.34;60.76;99506.16;4807405;30;20518;-81
2022/11/23 14:46:31;;;;;;;2.20;1.00;;;;;;;16.34;60.63;99517.38;4770831;30;20068;-82
2022/11/23 14:52:12;;;;;;;3.20;1.10;;;;;;;16.34;60.78;99519.13;4776174;30;20047;-82
2022/11/23 14:54:48;;;;;;;4.15;1.23;;;;;;;16.33;60.63;99518.28;4784428;30;20051;-82
2022/11/23 14:57:22;;;;;;;3.08;0.88;;;;;;;16.33;60.82;99531.25;4772221;30;20086;-82
2022/11/23 15:00:28;;;;;;;3.72;1.10;;;;;;;16.33;60.73;99535.59;4785671;30;20070;-81
2022/11/23 15:03:22;;;;;;;2.58;1.02;;;;;;;16.31;60.62;99535.66;4792539;30;20546;-82
2022/11/23 15:06:10;;;;;;;2.33;0.90;;;;;;;16.34;60.51;99537.31;4789569;30;20244;-82
2022/11/23 15:09:24;;;;;;;2.00;0.73;;;;;;;16.33;60.57;99540.78;4772990;30;20046;-81
2022/11/23 15:15:36;;;;;;;2.22;0.98;;;;;;;16.33;60.64;99536.47;4767019;30;20038;-79
2022/11/23 15:18:02;;;;;;;1.40;0.93;;;;;;;16.32;60.83;99539.94;4740072;30;20142;-79
2022/11/23 15:20:39;;;;;;;1.38;0.70;;;;;;;16.32;60.88;99560.69;4754665;30;20112;-78
2022/11/23 15:23:05;;;;;;;1.80;0.85;;;;;;;16.33;60.66;99558.94;4754791;30;20139;-79
2022/11/23 15:25:39;;;;;;;2.95;0.95;;;;;;;16.32;60.60;99560.69;4741699;30;20089;-80
2022/11/23 15:28:15;;;;;;;2.28;1.02;;;;;;;16.32;60.61;99554.66;4747354;30;20119;-80
2022/11/23 15:31:03;;;;;;;4.05;1.10;;;;;;;16.32;60.65;99563.28;4767114;30;20043;-80
2022/11/23 15:33:35;;;;;;;2.83;1.05;;;;;;;16.31;60.47;99558.13;4768893;30;20059;-83
2022/11/23 15:36:02;;;;;;;2.10;0.90;;;;;;;16.32;60.64;99559.84;4759404;30;20078;-79
2022/11/23 15:38:28;;;;;;;2.00;1.02;;;;;;;16.31;60.76;99548.63;4754249;30;20051;-80
2022/11/23 15:41:03;;;;;;;4.80;1.02;;;;;;;16.32;60.90;99550.31;4739652;30;20048;-79
2022/11/23 15:43:29;;;;;;;3.53;1.10;;;;;;;16.32;60.58;99562.44;4759632;30;20113;-79
2022/11/23 15:46:01;;;;;;;2.92;1.20;;;;;;;16.31;60.69;99564.19;4776722;29;20044;-79
2022/11/23 15:48:35;;;;;;;3.00;1.00;;;;;;;16.31;60.78;99572.00;4808925;29;20054;-79
2022/11/23 15:51:09;;;;;;;3.33;1.00;;;;;;;16.32;60.76;99578.03;4793169;30;20036;-80
2022/11/23 15:54:03;;;;;;;3.70;1.00;;;;;;;16.32;60.64;99575.44;4793129;30;20045;-79
2022/11/23 15:56:34;;;;;;;3.85;0.98;;;;;;;16.31;60.60;99579.78;4808638;29;20071;-79
2022/11/23 15:59:31;;;;;;;2.13;0.90;;;;;;;16.31;60.82;99584.09;4807436;29;20047;-79
2022/11/23 16:01:59;;;;;;;1.67;0.90;;;;;;;16.31;60.37;99581.50;4793603;30;20042;-80
2022/11/23 16:05:03;;;;;;;1.90;0.90;;;;;;;16.31;60.79;99579.78;4806839;30;20057;-83
2022/11/23 16:07:29;;;;;;;4.00;1.02;;;;;;;16.30;60.30;99587.59;4797709;29;20045;-80
2022/11/23 16:10:16;;;;;;;2.38;0.98;;;;;;;16.31;60.59;99602.25;4811525;29;20035;-82
2022/11/23 16:12:52;;;;;;;4.85;1.00;;;;;;;16.32;60.83;99599.63;4794769;29;20043;-80